createdAt,value
2022-12-29T00:02:23.288Z,37.20
2022-12-29T00:04:52.083Z,37.20
2022-12-29T00:07:20.259Z,37.20
2022-12-29T00:09:48.115Z,37.20
2022-12-29T00:12:16.086Z,37.20
2022-12-29T00:15:02.263Z,37.20
2022-12-29T00:17:30.696Z,37.20
2022-12-29T00:20:17.040Z,37.20
2022-12-29T00:23:04.305Z,37.30
2022-12-29T00:25:50.984Z,37.30
2022-12-29T00:28:37.762Z,37.20
2022-12-29T00:31:31.170Z,37.20
2022-12-29T00:34:17.570Z,37.30
2022-12-29T00:36:46.070Z,37.30
2022-12-29T00:39:36.267Z,37.30
2022-12-29T00:42:32.275Z,37.30
2022-12-29T00:45:00.201Z,37.30
2022-12-29T00:47:28.067Z,37.30
2022-12-29T00:49:56.361Z,37.30
2022-12-29T00:52:24.370Z,37.30
2022-12-29T00:54:52.194Z,37.30
2022-12-29T00:57:20.035Z,37.30
2022-12-29T00:59:47.889Z,37.30
2022-12-29T01:02:17.364Z,37.30
2022-12-29T01:04:48.477Z,37.40
2022-12-29T01:07:17.865Z,37.30
2022-12-29T01:10:05.191Z,37.30
2022-12-29T01:12:46.085Z,37.40
2022-12-29T01:15:16.346Z,37.40
2022-12-29T01:17:44.308Z,37.40
2022-12-29T01:20:12.838Z,37.40
2022-12-29T01:22:40.898Z,37.40
2022-12-29T01:25:09.004Z,37.40
2022-12-29T01:27:39.777Z,37.40
2022-12-29T01:30:08.247Z,37.40
2022-12-29T01:32:36.096Z,37.40
2022-12-29T01:35:04.531Z,37.40
2022-12-29T01:37:32.461Z,37.40
2022-12-29T01:40:00.308Z,37.50
2022-12-29T01:42:28.264Z,37.40
2022-12-29T01:44:57.718Z,37.50
2022-12-29T01:47:28.664Z,37.40
2022-12-29T01:49:59.819Z,37.40
2022-12-29T01:52:31.311Z,37.50
2022-12-29T01:55:00.825Z,37.50
2022-12-29T01:57:37.649Z,37.50
2022-12-29T02:00:12.293Z,37.40
2022-12-29T02:02:55.422Z,37.40
2022-12-29T02:05:37.330Z,37.40
2022-12-29T02:08:05.455Z,37.40
2022-12-29T02:10:37.228Z,37.40
2022-12-29T02:13:05.471Z,37.40
2022-12-29T02:15:58.398Z,37.40
2022-12-29T02:18:34.677Z,37.30
2022-12-29T02:21:34.850Z,37.40
2022-12-29T02:24:17.625Z,37.30
2022-12-29T02:27:24.823Z,37.30
2022-12-29T02:29:55.853Z,37.40
2022-12-29T02:32:49.581Z,37.30
2022-12-29T02:35:51.279Z,37.40
2022-12-29T02:38:49.113Z,37.40
2022-12-29T02:41:43.219Z,37.40
2022-12-29T02:44:25.928Z,37.40
2022-12-29T02:47:15.466Z,37.40
2022-12-29T02:49:49.898Z,37.40
2022-12-29T02:52:23.235Z,37.30
2022-12-29T02:54:51.387Z,37.40
2022-12-29T02:57:22.356Z,37.40
2022-12-29T02:59:59.196Z,37.30
2022-12-29T03:02:36.163Z,37.30
2022-12-29T03:05:16.459Z,37.30
2022-12-29T03:08:03.090Z,37.30
2022-12-29T03:11:03.363Z,37.30
2022-12-29T03:13:50.846Z,37.20
2022-12-29T03:16:29.768Z,37.10
2022-12-29T03:19:16.450Z,37.00
2022-12-29T03:22:16.254Z,37.00
2022-12-29T03:24:53.214Z,36.90
2022-12-29T03:27:28.904Z,36.80
2022-12-29T03:30:03.974Z,36.80
2022-12-29T03:32:41.678Z,36.70
2022-12-29T03:35:14.216Z,36.60
2022-12-29T03:38:04.656Z,36.60
2022-12-29T03:40:35.045Z,36.50
2022-12-29T03:43:04.445Z,36.40
2022-12-29T03:45:35.500Z,36.40
2022-12-29T03:48:04.263Z,36.30
2022-12-29T03:50:33.279Z,36.20
2022-12-29T03:53:01.479Z,36.20
2022-12-29T03:55:29.571Z,36.20
2022-12-29T03:57:58.699Z,36.10
2022-12-29T04:00:48.073Z,36.00
2022-12-29T04:03:16.109Z,36.00
2022-12-29T04:05:46.323Z,35.90
2022-12-29T04:08:14.276Z,35.80
2022-12-29T04:10:42.233Z,35.80
2022-12-29T04:13:10.252Z,35.80
2022-12-29T04:15:38.161Z,36.20
2022-12-29T04:18:06.128Z,36.20
2022-12-29T04:20:54.080Z,36.60
2022-12-29T04:23:22.347Z,37.00
2022-12-29T04:25:50.339Z,37.20
2022-12-29T04:28:18.804Z,37.20
2022-12-29T04:31:10.223Z,37.40
2022-12-29T04:33:41.737Z,37.20
2022-12-29T04:36:10.345Z,37.30
2022-12-29T04:38:39.607Z,37.60
2022-12-29T04:41:07.677Z,37.80
2022-12-29T04:43:37.604Z,37.50
2022-12-29T04:46:36.380Z,37.50
2022-12-29T04:49:09.994Z,37.80
2022-12-29T04:51:50.377Z,37.80
2022-12-29T04:54:19.649Z,37.70
2022-12-29T04:56:55.603Z,37.90
2022-12-29T04:59:23.674Z,38.00
2022-12-29T05:01:55.788Z,37.80
2022-12-29T05:04:24.033Z,37.90
2022-12-29T05:06:52.091Z,37.90
2022-12-29T05:09:20.212Z,37.80
2022-12-29T05:11:48.587Z,37.50
2022-12-29T05:14:16.696Z,36.80
2022-12-29T05:16:47.278Z,36.30
2022-12-29T05:19:15.300Z,36.30
2022-12-29T05:21:43.202Z,36.10
2022-12-29T05:24:12.171Z,36.00
2022-12-29T05:26:40.267Z,35.90
2022-12-29T05:29:27.092Z,35.90
2022-12-29T05:31:55.384Z,35.90
2022-12-29T05:34:23.621Z,35.70
2022-12-29T05:36:52.468Z,35.80
2022-12-29T05:39:20.667Z,35.80
2022-12-29T05:41:54.248Z,35.70
2022-12-29T05:44:51.205Z,35.70
2022-12-29T05:47:33.814Z,35.80
2022-12-29T05:50:25.211Z,35.60
2022-12-29T05:53:12.283Z,35.60
2022-12-29T05:55:46.594Z,35.50
2022-12-29T05:58:18.474Z,35.50
2022-12-29T06:00:46.631Z,35.60
2022-12-29T06:03:14.856Z,35.50
2022-12-29T06:05:45.625Z,35.50
2022-12-29T06:08:16.928Z,35.70
2022-12-29T06:10:45.006Z,35.50
2022-12-29T06:13:13.361Z,35.20
2022-12-29T06:15:44.775Z,32.40
2022-12-29T06:18:19.358Z,29.50
2022-12-29T06:20:49.199Z,29.30
2022-12-29T06:23:19.803Z,29.20
2022-12-29T06:25:51.100Z,29.50
2022-12-29T06:28:20.822Z,29.10
2022-12-29T06:30:49.796Z,29.10
2022-12-29T06:33:19.534Z,29.50
2022-12-29T06:35:49.971Z,28.00
2022-12-29T06:38:17.960Z,28.60
2022-12-29T06:40:46.325Z,29.00
2022-12-29T06:43:46.736Z,29.40
2022-12-29T06:46:44.331Z,30.20
2022-12-29T06:49:12.475Z,30.10
2022-12-29T06:51:40.579Z,32.60
2022-12-29T06:54:08.933Z,31.90
2022-12-29T06:56:36.804Z,30.80
2022-12-29T06:59:04.859Z,30.20
2022-12-29T07:01:33.135Z,30.50
2022-12-29T07:04:01.184Z,30.60
2022-12-29T07:06:29.242Z,30.70
2022-12-29T07:08:58.541Z,30.60
2022-12-29T07:11:26.706Z,30.90
2022-12-29T07:13:54.751Z,31.50
2022-12-29T07:16:22.874Z,31.60
2022-12-29T07:18:51.203Z,31.60
2022-12-29T07:21:19.922Z,31.20
2022-12-29T07:23:48.578Z,31.80
2022-12-29T07:26:19.178Z,31.50
2022-12-29T07:28:47.523Z,31.70
2022-12-29T07:31:18.215Z,31.60
2022-12-29T07:33:47.394Z,31.80
2022-12-29T07:36:19.095Z,31.80
2022-12-29T07:38:47.180Z,32.10
2022-12-29T07:41:15.257Z,32.20
2022-12-29T07:43:43.418Z,32.10
2022-12-29T07:46:54.219Z,32.30
2022-12-29T07:49:21.717Z,32.90
2022-12-29T07:51:49.960Z,32.70
2022-12-29T07:54:20.574Z,32.60
2022-12-29T07:56:48.662Z,33.00
2022-12-29T07:59:16.962Z,33.00
2022-12-29T08:01:45.254Z,33.40
2022-12-29T08:04:13.726Z,33.10
2022-12-29T08:06:41.815Z,34.00
2022-12-29T08:09:16.517Z,33.90
2022-12-29T08:11:46.286Z,33.70
2022-12-29T08:14:14.277Z,33.60
2022-12-29T08:16:42.238Z,33.90
2022-12-29T08:19:13.023Z,33.80
2022-12-29T08:21:41.205Z,33.70
2022-12-29T08:24:10.457Z,34.00
2022-12-29T08:26:38.575Z,34.00
2022-12-29T08:29:06.639Z,34.00
2022-12-29T08:31:34.820Z,34.10
2022-12-29T08:34:04.522Z,34.20
2022-12-29T08:36:32.612Z,34.20
2022-12-29T08:39:00.628Z,34.50
2022-12-29T08:41:29.085Z,34.70
2022-12-29T08:43:57.725Z,34.60
2022-12-29T08:46:25.782Z,35.00
2022-12-29T08:48:55.153Z,34.40
2022-12-29T08:51:25.202Z,34.40
2022-12-29T08:53:54.120Z,34.40
2022-12-29T08:56:24.880Z,34.80
2022-12-29T08:58:56.591Z,34.60
2022-12-29T09:01:25.841Z,34.40
2022-12-29T09:06:44.923Z,34.80
2022-12-29T09:09:13.466Z,35.10
2022-12-29T09:11:42.465Z,35.60
2022-12-29T09:14:10.585Z,35.50
2022-12-29T09:16:38.892Z,35.70
2022-12-29T09:19:07.047Z,35.90
2022-12-29T09:21:35.164Z,36.40
2022-12-29T09:24:03.399Z,36.20
2022-12-29T09:26:31.504Z,35.70
2022-12-29T09:28:59.826Z,35.60
2022-12-29T09:31:27.969Z,35.50
2022-12-29T09:33:56.119Z,35.50
2022-12-29T09:36:24.244Z,35.50
2022-12-29T09:38:54.847Z,35.50
2022-12-29T09:41:54.030Z,35.70
2022-12-29T09:44:30.333Z,36.00
2022-12-29T09:46:59.349Z,36.40
2022-12-29T09:49:50.747Z,35.80
2022-12-29T09:52:30.542Z,35.80
2022-12-29T09:55:10.681Z,35.70
2022-12-29T09:58:02.222Z,35.90
2022-12-29T10:00:58.169Z,36.00
2022-12-29T10:03:37.276Z,36.00
2022-12-29T10:06:21.589Z,36.10
2022-12-29T10:09:12.768Z,36.20
2022-12-29T10:11:57.783Z,36.20
2022-12-29T10:14:55.912Z,36.30
2022-12-29T10:17:42.416Z,36.40
2022-12-29T10:20:34.862Z,36.50
2022-12-29T10:23:19.895Z,36.60
2022-12-29T10:25:48.764Z,36.60
2022-12-29T10:28:23.768Z,36.80
2022-12-29T10:30:54.928Z,36.70
2022-12-29T10:33:28.118Z,37.00
2022-12-29T10:35:56.475Z,37.20
2022-12-29T10:38:28.467Z,37.10
2022-12-29T10:41:06.813Z,37.50
2022-12-29T10:43:52.264Z,37.10
2022-12-29T10:46:29.686Z,37.10
2022-12-29T10:48:57.855Z,37.10
2022-12-29T10:51:32.329Z,37.10
2022-12-29T10:54:12.104Z,37.40
2022-12-29T10:56:53.739Z,37.10
2022-12-29T10:59:32.095Z,37.30
2022-12-29T11:02:11.759Z,37.30
2022-12-29T11:05:17.005Z,37.40
2022-12-29T11:07:47.858Z,37.40
2022-12-29T11:10:36.495Z,37.50
2022-12-29T11:13:26.450Z,37.50
2022-12-29T11:15:54.623Z,37.60
2022-12-29T11:18:41.069Z,37.80
2022-12-29T11:21:28.718Z,38.30
2022-12-29T11:24:03.580Z,38.70
2022-12-29T11:26:34.637Z,38.80
2022-12-29T11:29:23.326Z,38.60
2022-12-29T11:31:55.050Z,38.90
2022-12-29T11:34:36.719Z,39.10
2022-12-29T11:37:52.605Z,39.10
2022-12-29T11:40:22.316Z,39.50
2022-12-29T11:42:53.790Z,39.40
2022-12-29T11:45:30.169Z,39.10
2022-12-29T11:48:20.967Z,39.80
2022-12-29T11:50:55.229Z,40.10
2022-12-29T11:53:41.154Z,40.10
2022-12-29T11:56:21.438Z,40.00
2022-12-29T11:58:51.688Z,40.00
2022-12-29T12:01:39.609Z,40.10
2022-12-29T12:04:18.212Z,39.90
2022-12-29T12:07:10.911Z,39.60
2022-12-29T12:09:44.876Z,39.00
2022-12-29T12:12:28.153Z,39.00
2022-12-29T12:15:02.777Z,38.60
2022-12-29T12:17:56.680Z,38.70
2022-12-29T12:20:46.953Z,34.40
2022-12-29T12:23:23.226Z,33.10
2022-12-29T12:26:17.792Z,34.10
2022-12-29T12:29:05.996Z,35.30
2022-12-29T12:31:36.817Z,35.00
2022-12-29T12:34:12.214Z,35.30
2022-12-29T12:37:03.972Z,35.60
2022-12-29T12:40:01.059Z,35.90
2022-12-29T12:42:41.094Z,35.80
2022-12-29T12:45:31.890Z,36.10
2022-12-29T12:48:31.935Z,36.20
2022-12-29T12:51:17.294Z,36.40
2022-12-29T12:54:12.122Z,36.70
2022-12-29T12:57:04.283Z,37.10
2022-12-29T12:59:51.833Z,37.10
2022-12-29T13:02:32.082Z,37.20
2022-12-29T13:05:27.366Z,37.30
2022-12-29T13:08:32.282Z,37.30
2022-12-29T13:11:02.849Z,37.40
2022-12-29T13:13:59.117Z,37.60
2022-12-29T13:16:27.159Z,37.80
2022-12-29T13:19:07.094Z,37.70
2022-12-29T13:21:42.022Z,37.70
2022-12-29T13:24:29.652Z,37.60
2022-12-29T13:27:22.778Z,37.80
2022-12-29T13:29:55.795Z,38.00
2022-12-29T13:32:58.311Z,37.90
2022-12-29T13:35:57.152Z,37.90
2022-12-29T13:38:36.978Z,38.00
2022-12-29T13:41:20.028Z,38.10
2022-12-29T13:43:52.708Z,37.90
2022-12-29T13:46:30.494Z,37.60
2022-12-29T13:49:08.507Z,37.30
2022-12-29T13:51:39.561Z,37.00
2022-12-29T13:54:16.435Z,37.10
2022-12-29T13:56:57.584Z,37.30
2022-12-29T13:59:41.820Z,38.40
2022-12-29T14:02:34.692Z,37.70
2022-12-29T14:05:23.125Z,37.60
2022-12-29T14:08:06.808Z,38.00
2022-12-29T14:10:46.625Z,37.80
2022-12-29T14:13:18.249Z,38.20
2022-12-29T14:15:56.063Z,38.30
2022-12-29T14:18:45.182Z,38.40
2022-12-29T14:21:28.981Z,38.70
2022-12-29T14:24:37.166Z,38.20
2022-12-29T14:27:11.217Z,38.40
2022-12-29T14:29:42.243Z,38.40
2022-12-29T14:32:33.494Z,38.50
2022-12-29T14:35:22.300Z,38.50
2022-12-29T14:38:26.495Z,38.50
2022-12-29T14:41:44.508Z,38.70
2022-12-29T14:44:22.455Z,38.70
2022-12-29T14:46:59.976Z,38.80
2022-12-29T14:49:34.216Z,38.80
2022-12-29T14:52:26.925Z,38.80
2022-12-29T14:55:01.681Z,38.90
2022-12-29T14:57:38.377Z,39.00
2022-12-29T15:00:19.199Z,38.90
2022-12-29T15:03:10.598Z,39.00
2022-12-29T15:06:09.211Z,39.10
2022-12-29T15:09:04.584Z,39.10
2022-12-29T15:11:52.961Z,39.10
2022-12-29T15:14:38.676Z,39.60
2022-12-29T15:17:29.400Z,39.40
2022-12-29T15:20:00.306Z,39.40
2022-12-29T15:22:29.298Z,40.00
2022-12-29T15:24:58.082Z,40.40
2022-12-29T15:27:27.678Z,40.10
2022-12-29T15:30:03.000Z,40.10
2022-12-29T15:32:44.993Z,40.80
2022-12-29T15:35:24.684Z,40.80
2022-12-29T15:37:52.851Z,41.10
2022-12-29T15:40:34.181Z,41.20
2022-12-29T15:43:24.477Z,41.30
2022-12-29T15:45:54.103Z,41.30
2022-12-29T15:48:26.494Z,41.60
2022-12-29T15:50:55.707Z,41.50
2022-12-29T15:53:30.413Z,41.50
2022-12-29T15:56:04.663Z,41.50
2022-12-29T15:58:42.011Z,41.80
2022-12-29T16:01:19.204Z,41.50
2022-12-29T16:03:48.512Z,41.20
2022-12-29T16:06:31.387Z,41.50
2022-12-29T16:09:00.891Z,41.90
2022-12-29T16:11:38.886Z,41.90
2022-12-29T16:14:17.439Z,41.80
2022-12-29T16:16:47.778Z,41.30
2022-12-29T16:19:31.212Z,40.70
2022-12-29T16:22:00.300Z,40.80
2022-12-29T16:24:36.199Z,40.50
2022-12-29T16:27:20.992Z,40.20
2022-12-29T16:29:53.207Z,40.10
2022-12-29T16:32:26.097Z,40.10
2022-12-29T16:35:31.776Z,40.20
2022-12-29T16:38:34.294Z,40.10
2022-12-29T16:41:04.042Z,40.10
2022-12-29T16:43:42.841Z,40.00
2022-12-29T16:46:31.731Z,40.00
2022-12-29T16:49:00.015Z,40.00
2022-12-29T16:51:37.011Z,40.10
2022-12-29T16:54:05.740Z,40.00
2022-12-29T16:56:36.611Z,39.00
2022-12-29T16:59:19.785Z,39.20
2022-12-29T17:01:48.075Z,39.20
2022-12-29T17:04:17.572Z,38.90
2022-12-29T17:06:45.522Z,38.90
2022-12-29T17:09:27.554Z,39.20
2022-12-29T17:12:05.342Z,39.00
2022-12-29T17:14:38.448Z,39.10
2022-12-29T17:17:16.933Z,39.10
2022-12-29T17:19:59.989Z,39.10
2022-12-29T17:22:30.422Z,38.60
2022-12-29T17:25:01.549Z,36.70
2022-12-29T17:27:49.975Z,37.20
2022-12-29T17:30:26.090Z,38.00
2022-12-29T17:33:02.754Z,38.50
2022-12-29T17:35:30.932Z,38.30
2022-12-29T17:37:59.631Z,38.60
2022-12-29T17:40:29.989Z,38.50
2022-12-29T17:42:59.500Z,38.60
2022-12-29T17:45:32.852Z,38.60
2022-12-29T17:48:02.076Z,38.60
2022-12-29T17:50:31.744Z,38.60
2022-12-29T17:53:05.834Z,38.60
2022-12-29T17:55:38.049Z,38.50
2022-12-29T17:58:25.643Z,38.50
2022-12-29T18:00:57.698Z,38.50
2022-12-29T18:03:32.462Z,38.50
2022-12-29T18:06:01.527Z,38.50
2022-12-29T18:08:29.730Z,38.60
2022-12-29T18:10:59.052Z,38.60
2022-12-29T18:13:40.397Z,38.70
2022-12-29T18:16:13.638Z,38.20
2022-12-29T18:18:41.841Z,38.50
2022-12-29T18:21:19.108Z,38.60
2022-12-29T18:23:48.198Z,38.70
2022-12-29T18:26:25.728Z,38.70
2022-12-29T18:28:59.259Z,38.70
2022-12-29T18:31:32.413Z,38.70
2022-12-29T18:34:03.326Z,38.70
2022-12-29T18:36:31.288Z,38.70
2022-12-29T18:38:59.301Z,38.70
2022-12-29T18:41:29.946Z,38.70
2022-12-29T18:43:58.891Z,38.70
2022-12-29T18:46:27.266Z,38.70
2022-12-29T18:48:55.926Z,38.70
2022-12-29T18:51:25.654Z,38.70
2022-12-29T18:53:54.683Z,38.70
2022-12-29T18:56:24.569Z,38.70
2022-12-29T18:58:53.793Z,38.70
2022-12-29T19:01:26.041Z,38.70
2022-12-29T19:03:54.473Z,38.70
2022-12-29T19:06:22.670Z,38.70
2022-12-29T19:08:50.714Z,38.70
2022-12-29T19:11:18.771Z,38.70
2022-12-29T19:13:49.115Z,38.70
2022-12-29T19:16:21.054Z,38.70
2022-12-29T19:19:07.402Z,38.70
2022-12-29T19:21:37.815Z,38.70
2022-12-29T19:24:06.726Z,38.70
2022-12-29T19:26:37.142Z,38.70
2022-12-29T19:29:07.995Z,38.70
2022-12-29T19:31:39.062Z,38.70
2022-12-29T19:34:07.237Z,38.70
2022-12-29T19:36:35.396Z,38.70
2022-12-29T19:39:03.658Z,38.70
2022-12-29T19:41:32.137Z,38.70
2022-12-29T19:44:01.093Z,38.70
2022-12-29T19:46:29.076Z,38.70
2022-12-29T19:48:59.637Z,38.60
2022-12-29T19:51:28.027Z,38.70
2022-12-29T19:53:56.308Z,38.70
2022-12-29T19:56:24.435Z,38.70
2022-12-29T19:58:52.380Z,38.70
2022-12-29T20:01:22.901Z,38.70
2022-12-29T20:03:52.044Z,38.70
2022-12-29T20:06:20.687Z,38.70
2022-12-29T20:08:49.007Z,38.70
2022-12-29T20:11:18.723Z,38.70
2022-12-29T20:13:47.523Z,38.70
2022-12-29T20:16:18.976Z,38.70
2022-12-29T20:18:48.181Z,38.70
2022-12-29T20:21:21.896Z,38.70
2022-12-29T20:23:53.550Z,38.70
2022-12-29T20:26:24.978Z,38.70
2022-12-29T20:28:53.755Z,38.70
2022-12-29T20:31:26.339Z,38.70
2022-12-29T20:33:55.114Z,38.70
2022-12-29T20:36:27.528Z,38.70
2022-12-29T20:38:56.941Z,38.70
2022-12-29T20:41:25.808Z,38.70
2022-12-29T20:43:54.440Z,38.70
2022-12-29T20:46:28.023Z,38.70
2022-12-29T20:49:00.779Z,38.70
2022-12-29T20:51:59.288Z,38.70
2022-12-29T20:54:19.497Z,38.70
2022-12-29T20:56:48.794Z,38.70
2022-12-29T20:59:27.494Z,38.70
2022-12-29T21:01:57.482Z,38.60
2022-12-29T21:04:26.275Z,38.70
2022-12-29T21:06:54.633Z,38.70
2022-12-29T21:09:23.147Z,38.70
2022-12-29T21:11:51.309Z,38.70
2022-12-29T21:14:19.415Z,38.70
2022-12-29T21:16:47.587Z,38.70
2022-12-29T21:19:16.359Z,38.80
2022-12-29T21:21:44.319Z,38.80
2022-12-29T21:24:12.242Z,38.80
2022-12-29T21:26:40.741Z,38.80
2022-12-29T21:29:08.870Z,38.80
2022-12-29T21:31:37.385Z,38.80
2022-12-29T21:34:06.634Z,38.80
2022-12-29T21:36:35.063Z,38.80
2022-12-29T21:39:03.769Z,38.80
2022-12-29T21:41:32.642Z,38.80
2022-12-29T21:44:24.672Z,38.80
2022-12-29T21:46:52.800Z,38.80
2022-12-29T21:49:21.689Z,38.80
2022-12-29T21:51:56.049Z,38.80
2022-12-29T21:54:48.498Z,38.80
2022-12-29T21:57:37.510Z,38.80
2022-12-29T22:00:26.054Z,38.80
2022-12-29T22:03:21.988Z,38.90
2022-12-29T22:06:10.914Z,38.90
2022-12-29T22:08:58.599Z,38.80
2022-12-29T22:11:44.826Z,38.80
2022-12-29T22:14:12.756Z,38.90
2022-12-29T22:16:40.635Z,38.90
2022-12-29T22:19:09.004Z,38.90
2022-12-29T22:21:36.901Z,38.90
2022-12-29T22:24:05.087Z,38.90
2022-12-29T22:26:32.973Z,38.90
2022-12-29T22:29:01.068Z,38.90
2022-12-29T22:31:32.773Z,38.90
2022-12-29T22:34:03.314Z,38.90
2022-12-29T22:36:32.480Z,38.90
2022-12-29T22:39:00.521Z,38.90
2022-12-29T22:41:28.443Z,38.90
2022-12-29T22:43:56.683Z,38.90
2022-12-29T22:46:24.743Z,38.90
2022-12-29T22:48:52.769Z,38.90
2022-12-29T22:51:20.789Z,38.90
2022-12-29T22:53:50.021Z,38.90
2022-12-29T22:56:18.426Z,38.90
2022-12-29T22:58:48.177Z,38.90
2022-12-29T23:01:18.441Z,38.90
2022-12-29T23:03:46.538Z,38.90
2022-12-29T23:06:16.877Z,38.90
2022-12-29T23:08:45.439Z,39.00
2022-12-29T23:11:13.749Z,39.00
2022-12-29T23:13:44.695Z,38.90
2022-12-29T23:16:13.225Z,39.00
2022-12-29T23:18:41.554Z,39.00
2022-12-29T23:21:10.237Z,39.00
2022-12-29T23:23:56.465Z,39.00
2022-12-29T23:26:28.934Z,39.00
2022-12-29T23:29:00.445Z,39.00
2022-12-29T23:31:29.851Z,39.00
2022-12-29T23:33:59.137Z,39.00
2022-12-29T23:36:28.100Z,39.00
2022-12-29T23:38:57.079Z,39.00
2022-12-29T23:41:25.763Z,39.00
2022-12-29T23:43:53.709Z,39.00
2022-12-29T23:46:24.609Z,39.00
2022-12-29T23:48:53.046Z,39.00
2022-12-29T23:51:21.149Z,39.00
2022-12-29T23:53:49.373Z,39.00
2022-12-29T23:56:21.769Z,39.00
2022-12-29T23:58:51.404Z,39.10
